UAL827 RJAA-PGUM
Flight info
| Callsign | UAL827 |
|---|---|
| Flight time | 3h 7m |
| Altitude | 37000 |
| Route | OLVAN Y823 MERED Y821 DAGDA A337 TEGOD/N0460F380 G205 GUYES |
| Aircraft | B38M/M-SDE1FGHILORVWXY/HB1 |
Departure
| Time | 2026-05-05 13:19 |
|---|---|
| Airport | Narita International Airport (RJAA) |
Arrival
| Time | 2026-05-05 16:27 |
|---|---|
| Airport | Antonio B. Won Pat International Airport (PGUM) |
| Time | Latitude | Longitude | Altitude | Speed | Heading |
|---|---|---|---|---|---|
| 2026-05-05 12:59 | 35.76849 | 140.39255 | 146 ft | 0 kts | 294° |
| 2026-05-05 13:05 | 35.76840 | 140.39280 | 146 ft | 4 kts | 294° |
| 2026-05-05 13:05 | 35.76829 | 140.39310 | 146 ft | 4 kts | 292° |
| 2026-05-05 13:06 | 35.76820 | 140.39342 | 146 ft | 4 kts | 282° |
| 2026-05-05 13:06 | 35.76820 | 140.39370 | 146 ft | 4 kts | 234° |
| 2026-05-05 13:06 | 35.76825 | 140.39377 | 146 ft | 0 kts | 205° |
| 2026-05-05 13:10 | 35.76822 | 140.39375 | 146 ft | 1 kts | 205° |
| 2026-05-05 13:10 | 35.76803 | 140.39364 | 146 ft | 6 kts | 204° |
| 2026-05-05 13:10 | 35.76745 | 140.39332 | 146 ft | 13 kts | 204° |
| 2026-05-05 13:10 | 35.76655 | 140.39283 | 146 ft | 15 kts | 207° |
| 2026-05-05 13:11 | 35.76556 | 140.39226 | 146 ft | 17 kts | 205° |
| 2026-05-05 13:11 | 35.76446 | 140.39166 | 146 ft | 18 kts | 203° |
| 2026-05-05 13:11 | 35.76341 | 140.39109 | 146 ft | 16 kts | 204° |
| 2026-05-05 13:11 | 35.76237 | 140.39053 | 146 ft | 17 kts | 204° |
| 2026-05-05 13:12 | 35.76127 | 140.38993 | 146 ft | 18 kts | 204° |
| 2026-05-05 13:12 | 35.76009 | 140.38926 | 146 ft | 19 kts | 205° |
| 2026-05-05 13:12 | 35.75884 | 140.38855 | 146 ft | 20 kts | 205° |
| 2026-05-05 13:12 | 35.75759 | 140.38784 | 146 ft | 15 kts | 208° |
| 2026-05-05 13:13 | 35.75695 | 140.38682 | 147 ft | 16 kts | 246° |
| 2026-05-05 13:13 | 35.75727 | 140.38564 | 147 ft | 17 kts | 330° |
| 2026-05-05 13:13 | 35.75833 | 140.38490 | 147 ft | 18 kts | 329° |
| 2026-05-05 13:13 | 35.75946 | 140.38408 | 146 ft | 20 kts | 330° |
| 2026-05-05 13:14 | 35.76068 | 140.38320 | 146 ft | 21 kts | 329° |
| 2026-05-05 13:14 | 35.76154 | 140.38258 | 146 ft | 22 kts | 329° |
| 2026-05-05 13:14 | 35.76289 | 140.38160 | 146 ft | 23 kts | 329° |
| 2026-05-05 13:14 | 35.76432 | 140.38056 | 146 ft | 24 kts | 329° |
| 2026-05-05 13:15 | 35.76580 | 140.37947 | 146 ft | 21 kts | 329° |
| 2026-05-05 13:15 | 35.76604 | 140.37856 | 146 ft | 13 kts | 241° |
| 2026-05-05 13:15 | 35.76567 | 140.37753 | 146 ft | 14 kts | 274° |
| 2026-05-05 13:15 | 35.76634 | 140.37667 | 146 ft | 15 kts | 329° |
| 2026-05-05 13:16 | 35.76728 | 140.37600 | 146 ft | 16 kts | 332° |
| 2026-05-05 13:16 | 35.76825 | 140.37530 | 146 ft | 16 kts | 329° |
| 2026-05-05 13:16 | 35.76927 | 140.37456 | 146 ft | 18 kts | 329° |
| 2026-05-05 13:16 | 35.77038 | 140.37375 | 146 ft | 19 kts | 329° |
| 2026-05-05 13:17 | 35.77156 | 140.37290 | 145 ft | 21 kts | 330° |
| 2026-05-05 13:17 | 35.77285 | 140.37199 | 145 ft | 22 kts | 330° |
| 2026-05-05 13:17 | 35.77421 | 140.37102 | 145 ft | 23 kts | 329° |
| 2026-05-05 13:17 | 35.77495 | 140.36989 | 146 ft | 16 kts | 254° |
| 2026-05-05 13:18 | 35.77442 | 140.36871 | 146 ft | 12 kts | 237° |
| 2026-05-05 13:18 | 35.77376 | 140.36875 | 145 ft | 11 kts | 148° |
| 2026-05-05 13:18 | 35.77297 | 140.36932 | 144 ft | 19 kts | 149° |
| 2026-05-05 13:18 | 35.76991 | 140.37154 | 144 ft | 85 kts | 149° |
| 2026-05-05 13:19 | 35.76317 | 140.37643 | 146 ft | 141 kts | 149° |
| 2026-05-05 13:19 | 35.75356 | 140.38327 | 336 ft | 169 kts | 150° |
| 2026-05-05 13:19 | 35.74314 | 140.39056 | 884 ft | 173 kts | 152° |
| 2026-05-05 13:19 | 35.73278 | 140.39787 | 1677 ft | 171 kts | 153° |
| 2026-05-05 13:20 | 35.72232 | 140.40524 | 2319 ft | 179 kts | 153° |
| 2026-05-05 13:20 | 35.71096 | 140.41338 | 2685 ft | 199 kts | 152° |
| 2026-05-05 13:20 | 35.69850 | 140.42257 | 2723 ft | 216 kts | 152° |
| 2026-05-05 13:20 | 35.68520 | 140.43232 | 2829 ft | 233 kts | 152° |
| 2026-05-05 13:21 | 35.67104 | 140.44263 | 2912 ft | 239 kts | 152° |
| 2026-05-05 13:21 | 35.65654 | 140.45315 | 2988 ft | 244 kts | 152° |
| 2026-05-05 13:21 | 35.64187 | 140.46377 | 3012 ft | 245 kts | 152° |
| 2026-05-05 13:21 | 35.62716 | 140.47439 | 3020 ft | 245 kts | 152° |
| 2026-05-05 13:22 | 35.61232 | 140.48510 | 3325 ft | 249 kts | 152° |
| 2026-05-05 13:22 | 35.59749 | 140.49580 | 4186 ft | 252 kts | 152° |
| 2026-05-05 13:22 | 35.58211 | 140.50689 | 4928 ft | 261 kts | 152° |
| 2026-05-05 13:22 | 35.56627 | 140.51828 | 5720 ft | 266 kts | 151° |
| 2026-05-05 13:23 | 35.55004 | 140.52992 | 6514 ft | 272 kts | 150° |
| 2026-05-05 13:23 | 35.53356 | 140.54174 | 7262 ft | 277 kts | 151° |
| 2026-05-05 13:23 | 35.51684 | 140.55376 | 8060 ft | 279 kts | 151° |
| 2026-05-05 13:23 | 35.50015 | 140.56573 | 8827 ft | 283 kts | 151° |
| 2026-05-05 13:24 | 35.48306 | 140.57797 | 9632 ft | 285 kts | 152° |
| 2026-05-05 13:24 | 35.46578 | 140.59034 | 10367 ft | 291 kts | 152° |
| 2026-05-05 13:24 | 35.44770 | 140.60328 | 10703 ft | 310 kts | 152° |
| 2026-05-05 13:24 | 35.42939 | 140.61892 | 10958 ft | 332 kts | 136° |
| 2026-05-05 13:25 | 35.41521 | 140.64196 | 11455 ft | 344 kts | 127° |
| 2026-05-05 13:25 | 35.40138 | 140.66646 | 12048 ft | 350 kts | 127° |
| 2026-05-05 13:25 | 35.38770 | 140.69088 | 12704 ft | 354 kts | 127° |
| 2026-05-05 13:25 | 35.37366 | 140.71607 | 13348 ft | 359 kts | 126° |
| 2026-05-05 13:26 | 35.35945 | 140.74155 | 14029 ft | 363 kts | 126° |
| 2026-05-05 13:26 | 35.34521 | 140.76715 | 14652 ft | 366 kts | 126° |
| 2026-05-05 13:26 | 35.33073 | 140.79310 | 15261 ft | 371 kts | 126° |
| 2026-05-05 13:26 | 35.31612 | 140.81929 | 15873 ft | 373 kts | 126° |
| 2026-05-05 13:27 | 35.30138 | 140.84571 | 16493 ft | 376 kts | 127° |
| 2026-05-05 13:27 | 35.28656 | 140.87225 | 17114 ft | 378 kts | 127° |
| 2026-05-05 13:27 | 35.27183 | 140.89862 | 17691 ft | 382 kts | 126° |
| 2026-05-05 13:27 | 35.25671 | 140.92564 | 18207 ft | 387 kts | 127° |
| 2026-05-05 13:28 | 35.24141 | 140.95295 | 18739 ft | 390 kts | 126° |
| 2026-05-05 13:28 | 35.22599 | 140.98048 | 19233 ft | 393 kts | 127° |
| 2026-05-05 13:28 | 35.20889 | 141.00648 | 19600 ft | 395 kts | 141° |
| 2026-05-05 13:28 | 35.18623 | 141.02495 | 20065 ft | 391 kts | 159° |
| 2026-05-05 13:29 | 35.16091 | 141.03750 | 20448 ft | 394 kts | 162° |
| 2026-05-05 13:29 | 35.13551 | 141.04938 | 20916 ft | 397 kts | 164° |
| 2026-05-05 13:29 | 35.10954 | 141.06120 | 21356 ft | 400 kts | 165° |
| 2026-05-05 13:29 | 35.08323 | 141.07298 | 21808 ft | 403 kts | 165° |
| 2026-05-05 13:30 | 35.05676 | 141.08469 | 22256 ft | 406 kts | 166° |
| 2026-05-05 13:30 | 35.03004 | 141.09646 | 22711 ft | 410 kts | 166° |
| 2026-05-05 13:30 | 35.00307 | 141.10833 | 23144 ft | 413 kts | 167° |
| 2026-05-05 13:30 | 34.97599 | 141.12023 | 23557 ft | 417 kts | 167° |
| 2026-05-05 13:31 | 34.94856 | 141.13229 | 23983 ft | 420 kts | 168° |
| 2026-05-05 13:31 | 34.92096 | 141.14440 | 24365 ft | 423 kts | 168° |
| 2026-05-05 13:31 | 34.89352 | 141.15644 | 24762 ft | 425 kts | 168° |
| 2026-05-05 13:31 | 34.86559 | 141.16868 | 25161 ft | 427 kts | 169° |
| 2026-05-05 13:32 | 34.83758 | 141.18095 | 25537 ft | 429 kts | 169° |
| 2026-05-05 13:32 | 34.80950 | 141.19324 | 25936 ft | 430 kts | 169° |
| 2026-05-05 13:32 | 34.78118 | 141.20563 | 26308 ft | 432 kts | 170° |
| 2026-05-05 13:32 | 34.75284 | 141.21801 | 26688 ft | 434 kts | 170° |
| 2026-05-05 13:33 | 34.72436 | 141.23045 | 27056 ft | 436 kts | 170° |
| 2026-05-05 13:33 | 34.69573 | 141.24294 | 27420 ft | 438 kts | 171° |
| 2026-05-05 13:33 | 34.66693 | 141.25550 | 27778 ft | 440 kts | 171° |
| 2026-05-05 13:33 | 34.63808 | 141.26807 | 28091 ft | 442 kts | 171° |
| 2026-05-05 13:34 | 34.60948 | 141.28053 | 28445 ft | 443 kts | 171° |
| 2026-05-05 13:34 | 34.58031 | 141.29322 | 28784 ft | 445 kts | 171° |
| 2026-05-05 13:34 | 34.55107 | 141.30594 | 29115 ft | 447 kts | 172° |
| 2026-05-05 13:34 | 34.52175 | 141.31868 | 29450 ft | 449 kts | 172° |
| 2026-05-05 13:35 | 34.49226 | 141.33148 | 29776 ft | 451 kts | 172° |
| 2026-05-05 13:35 | 34.46268 | 141.34431 | 30049 ft | 453 kts | 172° |
| 2026-05-05 13:35 | 34.43283 | 141.35725 | 30344 ft | 456 kts | 172° |
| 2026-05-05 13:35 | 34.40298 | 141.37019 | 30618 ft | 457 kts | 172° |
| 2026-05-05 13:36 | 34.37288 | 141.38322 | 30900 ft | 458 kts | 172° |
| 2026-05-05 13:36 | 34.34276 | 141.39624 | 31180 ft | 459 kts | 172° |
| 2026-05-05 13:36 | 34.31309 | 141.40907 | 31451 ft | 461 kts | 172° |
| 2026-05-05 13:36 | 34.28280 | 141.42233 | 31728 ft | 465 kts | 169° |
| 2026-05-05 13:37 | 34.25379 | 141.44150 | 32062 ft | 487 kts | 155° |
| 2026-05-05 13:37 | 34.22821 | 141.46963 | 32423 ft | 510 kts | 140° |
| 2026-05-05 13:37 | 34.20809 | 141.50601 | 32778 ft | 528 kts | 127° |
| 2026-05-05 13:37 | 34.19085 | 141.54467 | 33051 ft | 528 kts | 128° |
| 2026-05-05 13:38 | 34.17273 | 141.58380 | 33347 ft | 527 kts | 129° |
| 2026-05-05 13:38 | 34.15512 | 141.62194 | 33700 ft | 526 kts | 129° |
| 2026-05-05 13:38 | 34.13731 | 141.66053 | 34087 ft | 524 kts | 129° |
| 2026-05-05 13:38 | 34.11965 | 141.69874 | 34447 ft | 522 kts | 129° |
| 2026-05-05 13:39 | 34.10195 | 141.73702 | 34726 ft | 522 kts | 129° |
| 2026-05-05 13:39 | 34.08422 | 141.77534 | 34971 ft | 522 kts | 129° |
| 2026-05-05 13:39 | 34.06650 | 141.81356 | 35214 ft | 522 kts | 129° |
| 2026-05-05 13:39 | 34.04874 | 141.85183 | 35411 ft | 522 kts | 129° |
| 2026-05-05 13:40 | 34.03123 | 141.88953 | 35662 ft | 522 kts | 129° |
| 2026-05-05 13:40 | 34.01347 | 141.92772 | 35882 ft | 521 kts | 129° |
| 2026-05-05 13:40 | 33.99576 | 141.96577 | 36101 ft | 521 kts | 129° |
| 2026-05-05 13:40 | 33.97796 | 142.00396 | 36314 ft | 521 kts | 129° |
| 2026-05-05 13:41 | 33.96019 | 142.04206 | 36513 ft | 521 kts | 129° |
| 2026-05-05 13:41 | 33.94262 | 142.07968 | 36692 ft | 521 kts | 129° |
| 2026-05-05 13:41 | 33.92483 | 142.11775 | 36928 ft | 520 kts | 129° |
| 2026-05-05 13:41 | 33.90707 | 142.15566 | 37139 ft | 519 kts | 129° |
| 2026-05-05 13:42 | 33.88917 | 142.19354 | 37318 ft | 519 kts | 129° |
| 2026-05-05 13:42 | 33.87137 | 142.23120 | 37339 ft | 520 kts | 129° |
| 2026-05-05 13:42 | 33.83221 | 142.30252 | 37301 ft | 491 kts | 147° |
| 2026-05-05 13:43 | 33.80687 | 142.32786 | 37319 ft | 469 kts | 159° |
| 2026-05-05 13:43 | 33.77909 | 142.34754 | 37288 ft | 453 kts | 170° |
| 2026-05-05 13:43 | 33.74980 | 142.35867 | 37335 ft | 433 kts | 179° |
| 2026-05-05 13:43 | 33.72049 | 142.36715 | 37323 ft | 434 kts | 180° |
| 2026-05-05 13:44 | 33.66160 | 142.38181 | 37323 ft | 431 kts | 181° |
| 2026-05-05 13:44 | 33.60295 | 142.39525 | 37307 ft | 431 kts | 181° |
| 2026-05-05 13:45 | 33.54380 | 142.40845 | 37319 ft | 433 kts | 181° |
| 2026-05-05 13:45 | 33.48458 | 142.42161 | 37320 ft | 432 kts | 181° |
| 2026-05-05 13:46 | 33.42535 | 142.43475 | 37297 ft | 433 kts | 181° |
| 2026-05-05 13:46 | 33.36615 | 142.44787 | 37321 ft | 436 kts | 181° |
| 2026-05-05 13:47 | 33.30648 | 142.46107 | 37320 ft | 435 kts | 181° |
| 2026-05-05 13:47 | 33.24687 | 142.47424 | 37288 ft | 436 kts | 180° |
| 2026-05-05 13:48 | 33.18692 | 142.48747 | 37323 ft | 440 kts | 180° |
| 2026-05-05 13:48 | 33.12674 | 142.50074 | 37320 ft | 443 kts | 180° |
| 2026-05-05 13:49 | 33.06595 | 142.51411 | 37317 ft | 443 kts | 180° |
| 2026-05-05 13:49 | 33.00510 | 142.52748 | 37308 ft | 446 kts | 180° |
| 2026-05-05 13:50 | 32.94374 | 142.54095 | 37316 ft | 450 kts | 180° |
| 2026-05-05 13:50 | 32.88256 | 142.55435 | 37309 ft | 450 kts | 180° |
| 2026-05-05 13:51 | 32.82092 | 142.56784 | 37296 ft | 451 kts | 180° |
| 2026-05-05 13:51 | 32.75874 | 142.58142 | 37305 ft | 454 kts | 180° |
| 2026-05-05 13:52 | 32.69710 | 142.59488 | 37310 ft | 454 kts | 180° |
| 2026-05-05 13:52 | 32.63493 | 142.60842 | 37308 ft | 454 kts | 180° |
| 2026-05-05 13:53 | 32.57274 | 142.62195 | 37309 ft | 454 kts | 180° |
| 2026-05-05 13:53 | 32.51088 | 142.63539 | 37303 ft | 454 kts | 180° |
| 2026-05-05 13:54 | 32.44885 | 142.64885 | 37268 ft | 454 kts | 180° |
| 2026-05-05 13:54 | 32.38630 | 142.66240 | 37314 ft | 459 kts | 180° |
| 2026-05-05 13:55 | 32.32331 | 142.67603 | 37305 ft | 460 kts | 180° |
| 2026-05-05 13:55 | 32.26077 | 142.68955 | 37303 ft | 460 kts | 180° |
| 2026-05-05 13:56 | 32.19782 | 142.70313 | 37301 ft | 460 kts | 180° |
| 2026-05-05 13:56 | 32.13473 | 142.71672 | 37300 ft | 460 kts | 180° |
| 2026-05-05 13:57 | 32.07166 | 142.73029 | 37300 ft | 460 kts | 180° |
| 2026-05-05 13:57 | 32.00898 | 142.74376 | 37288 ft | 460 kts | 180° |
| 2026-05-05 13:58 | 31.94590 | 142.75729 | 37292 ft | 461 kts | 180° |
| 2026-05-05 13:58 | 31.88266 | 142.77084 | 37299 ft | 461 kts | 180° |
| 2026-05-05 13:59 | 31.78785 | 142.79111 | 37297 ft | 462 kts | 180° |
| 2026-05-05 14:00 | 31.70368 | 142.80908 | 37297 ft | 461 kts | 180° |
| 2026-05-05 14:00 | 31.63079 | 142.82461 | 37268 ft | 462 kts | 180° |
| 2026-05-05 14:01 | 31.56778 | 142.83802 | 37294 ft | 463 kts | 180° |
| 2026-05-05 14:01 | 31.50439 | 142.85149 | 37292 ft | 462 kts | 180° |
| 2026-05-05 14:02 | 31.44115 | 142.86491 | 37290 ft | 462 kts | 180° |
| 2026-05-05 14:02 | 31.38854 | 142.87606 | 37284 ft | 460 kts | 179° |
| 2026-05-05 14:03 | 31.31530 | 142.89155 | 37286 ft | 459 kts | 179° |
| 2026-05-05 14:03 | 31.26300 | 142.90261 | 37287 ft | 459 kts | 179° |
| 2026-05-05 14:04 | 31.20016 | 142.91588 | 37275 ft | 458 kts | 179° |
| 2026-05-05 14:04 | 31.13758 | 142.92906 | 37281 ft | 455 kts | 179° |
| 2026-05-05 14:05 | 31.07554 | 142.94212 | 37281 ft | 455 kts | 179° |
| 2026-05-05 14:05 | 31.01308 | 142.95525 | 37250 ft | 455 kts | 179° |
| 2026-05-05 14:06 | 30.95076 | 142.96834 | 37278 ft | 454 kts | 179° |
| 2026-05-05 14:06 | 30.88891 | 142.98131 | 37285 ft | 454 kts | 179° |
| 2026-05-05 14:07 | 30.82663 | 142.99435 | 37282 ft | 454 kts | 179° |
| 2026-05-05 14:07 | 30.76443 | 143.00736 | 37271 ft | 453 kts | 178° |
| 2026-05-05 14:08 | 30.70247 | 143.02030 | 37274 ft | 452 kts | 178° |
| 2026-05-05 14:08 | 30.64087 | 143.03314 | 37277 ft | 452 kts | 178° |
| 2026-05-05 14:09 | 30.57895 | 143.04604 | 37276 ft | 452 kts | 178° |
| 2026-05-05 14:09 | 30.51708 | 143.05891 | 37279 ft | 452 kts | 178° |
| 2026-05-05 14:10 | 30.45564 | 143.07168 | 37277 ft | 452 kts | 178° |
| 2026-05-05 14:10 | 30.39369 | 143.08453 | 37276 ft | 452 kts | 178° |
| 2026-05-05 14:11 | 30.33160 | 143.09740 | 37278 ft | 453 kts | 178° |
| 2026-05-05 14:11 | 30.26955 | 143.11025 | 37281 ft | 452 kts | 178° |
| 2026-05-05 14:12 | 30.20798 | 143.12298 | 37270 ft | 453 kts | 178° |
| 2026-05-05 14:12 | 30.14585 | 143.13581 | 37257 ft | 453 kts | 178° |
| 2026-05-05 14:13 | 30.08360 | 143.14865 | 37269 ft | 454 kts | 178° |
| 2026-05-05 14:13 | 30.02176 | 143.16138 | 37273 ft | 454 kts | 178° |
| 2026-05-05 14:14 | 29.95972 | 143.17656 | 37274 ft | 456 kts | 176° |
| 2026-05-05 14:14 | 29.89798 | 143.19180 | 37271 ft | 457 kts | 175° |
| 2026-05-05 14:15 | 29.83568 | 143.20711 | 37263 ft | 457 kts | 176° |
| 2026-05-05 14:15 | 29.77339 | 143.22240 | 37262 ft | 457 kts | 176° |
| 2026-05-05 14:16 | 29.71170 | 143.23752 | 37252 ft | 457 kts | 175° |
| 2026-05-05 14:16 | 29.64938 | 143.25277 | 37263 ft | 457 kts | 175° |
| 2026-05-05 14:17 | 29.58703 | 143.26801 | 37262 ft | 457 kts | 175° |
| 2026-05-05 14:17 | 29.52486 | 143.28319 | 37233 ft | 457 kts | 175° |
| 2026-05-05 14:18 | 29.46310 | 143.29825 | 37256 ft | 457 kts | 175° |
| 2026-05-05 14:18 | 29.40078 | 143.31342 | 37257 ft | 457 kts | 175° |
| 2026-05-05 14:19 | 29.33882 | 143.32850 | 37258 ft | 457 kts | 175° |
| 2026-05-05 14:19 | 29.27651 | 143.34363 | 37256 ft | 457 kts | 175° |
| 2026-05-05 14:20 | 29.21464 | 143.35864 | 37251 ft | 457 kts | 175° |
| 2026-05-05 14:20 | 29.15235 | 143.37374 | 37250 ft | 457 kts | 175° |
| 2026-05-05 14:21 | 29.08997 | 143.38883 | 37229 ft | 457 kts | 175° |
| 2026-05-05 14:21 | 29.02761 | 143.40391 | 37246 ft | 457 kts | 175° |
| 2026-05-05 14:22 | 28.96578 | 143.41884 | 37244 ft | 457 kts | 175° |
| 2026-05-05 14:22 | 28.90339 | 143.43388 | 37241 ft | 457 kts | 175° |
| 2026-05-05 14:23 | 28.84142 | 143.44881 | 37234 ft | 457 kts | 175° |
| 2026-05-05 14:23 | 28.77901 | 143.46382 | 37232 ft | 458 kts | 175° |
| 2026-05-05 14:24 | 28.71665 | 143.47880 | 37236 ft | 458 kts | 175° |
| 2026-05-05 14:24 | 28.65430 | 143.49376 | 37208 ft | 458 kts | 175° |
| 2026-05-05 14:25 | 28.59225 | 143.50863 | 37234 ft | 458 kts | 175° |
| 2026-05-05 14:25 | 28.52983 | 143.52357 | 37232 ft | 457 kts | 175° |
| 2026-05-05 14:26 | 28.46753 | 143.53847 | 37228 ft | 457 kts | 175° |
| 2026-05-05 14:26 | 28.40555 | 143.55327 | 37227 ft | 457 kts | 175° |
| 2026-05-05 14:27 | 28.34317 | 143.56815 | 37230 ft | 458 kts | 175° |
| 2026-05-05 14:27 | 28.28120 | 143.58291 | 37230 ft | 458 kts | 175° |
| 2026-05-05 14:28 | 28.21876 | 143.59777 | 37222 ft | 458 kts | 175° |
| 2026-05-05 14:28 | 28.15631 | 143.61261 | 37230 ft | 458 kts | 175° |
| 2026-05-05 14:29 | 28.09385 | 143.62743 | 37227 ft | 457 kts | 175° |
| 2026-05-05 14:29 | 28.03196 | 143.64211 | 37227 ft | 458 kts | 175° |
| 2026-05-05 14:30 | 27.96948 | 143.65691 | 37210 ft | 457 kts | 174° |
| 2026-05-05 14:30 | 27.90703 | 143.67168 | 37227 ft | 458 kts | 174° |
| 2026-05-05 14:31 | 27.84502 | 143.68633 | 37225 ft | 458 kts | 174° |
| 2026-05-05 14:31 | 27.78275 | 143.70102 | 37225 ft | 458 kts | 174° |
| 2026-05-05 14:32 | 27.72028 | 143.71575 | 37223 ft | 458 kts | 174° |
| 2026-05-05 14:32 | 27.65790 | 143.73043 | 37221 ft | 458 kts | 174° |
| 2026-05-05 14:33 | 27.59582 | 143.74503 | 37225 ft | 458 kts | 174° |
| 2026-05-05 14:33 | 27.53350 | 143.75967 | 37207 ft | 458 kts | 174° |
| 2026-05-05 14:34 | 27.47092 | 143.77435 | 37217 ft | 459 kts | 174° |
| 2026-05-05 14:34 | 27.40876 | 143.78892 | 37216 ft | 458 kts | 174° |
| 2026-05-05 14:35 | 27.34620 | 143.80356 | 37217 ft | 458 kts | 174° |
| 2026-05-05 14:35 | 27.28378 | 143.81815 | 37212 ft | 458 kts | 174° |
| 2026-05-05 14:36 | 27.22164 | 143.83266 | 37213 ft | 458 kts | 174° |
| 2026-05-05 14:36 | 27.15914 | 143.84724 | 37214 ft | 458 kts | 174° |
| 2026-05-05 14:37 | 27.09647 | 143.86185 | 37209 ft | 458 kts | 174° |
| 2026-05-05 14:37 | 27.03454 | 143.87626 | 37206 ft | 458 kts | 173° |
| 2026-05-05 14:38 | 26.97204 | 143.89079 | 37207 ft | 458 kts | 173° |
| 2026-05-05 14:38 | 26.90958 | 143.90529 | 37208 ft | 458 kts | 173° |
| 2026-05-05 14:39 | 26.84754 | 143.91968 | 37193 ft | 458 kts | 173° |
| 2026-05-05 14:39 | 26.78515 | 143.93413 | 37201 ft | 458 kts | 173° |
| 2026-05-05 14:40 | 26.72271 | 143.94858 | 37202 ft | 458 kts | 173° |
| 2026-05-05 14:40 | 26.66064 | 143.96293 | 37198 ft | 458 kts | 173° |
| 2026-05-05 14:41 | 26.59814 | 143.97737 | 37192 ft | 458 kts | 173° |
| 2026-05-05 14:41 | 26.53565 | 143.99178 | 37198 ft | 459 kts | 173° |
| 2026-05-05 14:42 | 26.47303 | 144.00621 | 37195 ft | 459 kts | 173° |
| 2026-05-05 14:42 | 26.41048 | 144.02060 | 37195 ft | 459 kts | 173° |
| 2026-05-05 14:43 | 26.34823 | 144.03491 | 37200 ft | 460 kts | 173° |
| 2026-05-05 14:43 | 26.28555 | 144.04930 | 37190 ft | 460 kts | 173° |
| 2026-05-05 14:44 | 26.22276 | 144.06371 | 37191 ft | 460 kts | 173° |
| 2026-05-05 14:44 | 26.16036 | 144.07800 | 37196 ft | 460 kts | 173° |
| 2026-05-05 14:45 | 26.09756 | 144.09238 | 37185 ft | 460 kts | 173° |
| 2026-05-05 14:45 | 26.03494 | 144.10669 | 37181 ft | 460 kts | 173° |
| 2026-05-05 14:46 | 25.97254 | 144.12094 | 37185 ft | 460 kts | 173° |
| 2026-05-05 14:46 | 25.90988 | 144.13524 | 37173 ft | 460 kts | 172° |
| 2026-05-05 14:47 | 25.84695 | 144.14958 | 37182 ft | 461 kts | 172° |
| 2026-05-05 14:47 | 25.78452 | 144.16379 | 37178 ft | 461 kts | 172° |
| 2026-05-05 14:48 | 25.72166 | 144.17808 | 37179 ft | 461 kts | 172° |
| 2026-05-05 14:48 | 25.65867 | 144.19239 | 37175 ft | 461 kts | 172° |
| 2026-05-05 14:49 | 25.59563 | 144.20670 | 37180 ft | 462 kts | 172° |
| 2026-05-05 14:49 | 25.53313 | 144.22086 | 37180 ft | 462 kts | 172° |
| 2026-05-05 14:50 | 25.47004 | 144.23515 | 37177 ft | 462 kts | 172° |
| 2026-05-05 14:50 | 25.41758 | 144.24701 | 37183 ft | 462 kts | 172° |
| 2026-05-05 14:51 | 25.34421 | 144.26360 | 37177 ft | 463 kts | 172° |
| 2026-05-05 14:51 | 25.28099 | 144.27787 | 37177 ft | 463 kts | 172° |
| 2026-05-05 14:52 | 25.22839 | 144.28973 | 37178 ft | 463 kts | 172° |
| 2026-05-05 14:52 | 25.16506 | 144.30400 | 37174 ft | 464 kts | 172° |
| 2026-05-05 14:53 | 25.10175 | 144.31825 | 37175 ft | 464 kts | 172° |
| 2026-05-05 14:53 | 25.03894 | 144.33237 | 37170 ft | 464 kts | 172° |
| 2026-05-05 14:54 | 24.97553 | 144.34641 | 37161 ft | 464 kts | 172° |
| 2026-05-05 14:54 | 24.91212 | 144.36039 | 37173 ft | 464 kts | 172° |
| 2026-05-05 14:55 | 24.84919 | 144.37424 | 37166 ft | 464 kts | 172° |
| 2026-05-05 14:55 | 24.78577 | 144.38819 | 37170 ft | 464 kts | 172° |
| 2026-05-05 14:56 | 24.72226 | 144.40216 | 37160 ft | 465 kts | 172° |
| 2026-05-05 14:56 | 24.65911 | 144.41602 | 37167 ft | 465 kts | 172° |
| 2026-05-05 14:57 | 24.59569 | 144.42993 | 37163 ft | 465 kts | 172° |
| 2026-05-05 14:57 | 24.53213 | 144.44385 | 37166 ft | 465 kts | 172° |
| 2026-05-05 14:58 | 24.46898 | 144.45767 | 37158 ft | 465 kts | 171° |
| 2026-05-05 14:58 | 24.40536 | 144.47158 | 37163 ft | 465 kts | 171° |
| 2026-05-05 14:59 | 24.34187 | 144.48545 | 37160 ft | 465 kts | 171° |
| 2026-05-05 14:59 | 24.27868 | 144.49924 | 37157 ft | 465 kts | 171° |
| 2026-05-05 15:00 | 24.22540 | 144.51085 | 37154 ft | 465 kts | 171° |
| 2026-05-05 15:00 | 24.15154 | 144.52693 | 37156 ft | 464 kts | 171° |
| 2026-05-05 15:01 | 24.08854 | 144.54064 | 37155 ft | 464 kts | 171° |
| 2026-05-05 15:01 | 24.02499 | 144.55445 | 37154 ft | 464 kts | 171° |
| 2026-05-05 15:02 | 23.96153 | 144.56822 | 37152 ft | 464 kts | 171° |
| 2026-05-05 15:02 | 23.89849 | 144.58190 | 37151 ft | 464 kts | 171° |
| 2026-05-05 15:03 | 23.83510 | 144.59563 | 37153 ft | 464 kts | 171° |
| 2026-05-05 15:03 | 23.77171 | 144.60935 | 37145 ft | 464 kts | 171° |
| 2026-05-05 15:04 | 23.70866 | 144.62298 | 37139 ft | 464 kts | 171° |
| 2026-05-05 15:04 | 23.64521 | 144.63669 | 37140 ft | 464 kts | 171° |
| 2026-05-05 15:05 | 23.55055 | 144.65711 | 37143 ft | 464 kts | 171° |
| 2026-05-05 15:06 | 23.48724 | 144.67075 | 37138 ft | 464 kts | 171° |
| 2026-05-05 15:06 | 23.42379 | 144.68442 | 37142 ft | 464 kts | 171° |
| 2026-05-05 15:07 | 23.36055 | 144.69801 | 37140 ft | 464 kts | 171° |
| 2026-05-05 15:07 | 23.29748 | 144.71157 | 37138 ft | 464 kts | 171° |
| 2026-05-05 15:08 | 23.23405 | 144.72518 | 37138 ft | 464 kts | 171° |
| 2026-05-05 15:08 | 23.17044 | 144.73882 | 37136 ft | 465 kts | 171° |
| 2026-05-05 15:09 | 23.10709 | 144.75239 | 37132 ft | 465 kts | 171° |
| 2026-05-05 15:09 | 23.04387 | 144.76593 | 37132 ft | 466 kts | 171° |
| 2026-05-05 15:10 | 22.98016 | 144.77954 | 37131 ft | 466 kts | 171° |
| 2026-05-05 15:10 | 22.91642 | 144.79316 | 37129 ft | 466 kts | 171° |
| 2026-05-05 15:11 | 22.85317 | 144.80666 | 37124 ft | 466 kts | 171° |
| 2026-05-05 15:11 | 22.78942 | 144.82025 | 37123 ft | 466 kts | 171° |
| 2026-05-05 15:12 | 22.72565 | 144.83383 | 37120 ft | 466 kts | 171° |
| 2026-05-05 15:12 | 22.66230 | 144.84731 | 37120 ft | 467 kts | 171° |
| 2026-05-05 15:13 | 22.59856 | 144.86086 | 37120 ft | 467 kts | 171° |
| 2026-05-05 15:13 | 22.53521 | 144.87432 | 37118 ft | 466 kts | 171° |
| 2026-05-05 15:14 | 22.47144 | 144.88785 | 37114 ft | 466 kts | 171° |
| 2026-05-05 15:14 | 22.40754 | 144.90139 | 37116 ft | 467 kts | 171° |
| 2026-05-05 15:15 | 22.34413 | 144.91483 | 37115 ft | 467 kts | 171° |
| 2026-05-05 15:15 | 22.28025 | 144.92834 | 37116 ft | 467 kts | 170° |
| 2026-05-05 15:16 | 22.21637 | 144.94184 | 37104 ft | 468 kts | 170° |
| 2026-05-05 15:16 | 22.15264 | 144.95531 | 37109 ft | 471 kts | 171° |
| 2026-05-05 15:17 | 22.08828 | 144.96889 | 37109 ft | 469 kts | 170° |
| 2026-05-05 15:17 | 22.02415 | 144.98241 | 37111 ft | 468 kts | 170° |
| 2026-05-05 15:18 | 21.96021 | 144.99587 | 37108 ft | 469 kts | 170° |
| 2026-05-05 15:18 | 21.89641 | 145.00931 | 37106 ft | 471 kts | 171° |
| 2026-05-05 15:19 | 21.83192 | 145.02286 | 37095 ft | 471 kts | 170° |
| 2026-05-05 15:19 | 21.76789 | 145.03632 | 37100 ft | 469 kts | 171° |
| 2026-05-05 15:20 | 21.70351 | 145.04982 | 37102 ft | 472 kts | 170° |
| 2026-05-05 15:20 | 21.63896 | 145.06336 | 37099 ft | 474 kts | 170° |
| 2026-05-05 15:21 | 21.57471 | 145.07681 | 37085 ft | 471 kts | 170° |
| 2026-05-05 15:21 | 21.51037 | 145.09028 | 37091 ft | 471 kts | 170° |
| 2026-05-05 15:22 | 21.44638 | 145.10367 | 37096 ft | 472 kts | 170° |
| 2026-05-05 15:22 | 21.38180 | 145.11715 | 37086 ft | 474 kts | 170° |
| 2026-05-05 15:23 | 21.31747 | 145.13058 | 37077 ft | 471 kts | 170° |
| 2026-05-05 15:23 | 21.25312 | 145.14401 | 37077 ft | 470 kts | 170° |
| 2026-05-05 15:24 | 21.18856 | 145.15746 | 37100 ft | 473 kts | 170° |
| 2026-05-05 15:24 | 21.12444 | 145.17081 | 37082 ft | 473 kts | 170° |
| 2026-05-05 15:25 | 21.05979 | 145.18426 | 37078 ft | 471 kts | 170° |
| 2026-05-05 15:25 | 20.99512 | 145.19546 | 37057 ft | 468 kts | 182° |
| 2026-05-05 15:26 | 20.93058 | 145.19172 | 37046 ft | 467 kts | 184° |
| 2026-05-05 15:26 | 20.86571 | 145.18776 | 37079 ft | 469 kts | 185° |
| 2026-05-05 15:27 | 20.80035 | 145.18348 | 37062 ft | 472 kts | 185° |
| 2026-05-05 15:27 | 20.73532 | 145.17914 | 37086 ft | 470 kts | 185° |
| 2026-05-05 15:28 | 20.67041 | 145.17488 | 37035 ft | 469 kts | 185° |
| 2026-05-05 15:28 | 20.60517 | 145.17052 | 37063 ft | 469 kts | 185° |
| 2026-05-05 15:29 | 20.53979 | 145.16623 | 37081 ft | 472 kts | 185° |
| 2026-05-05 15:29 | 20.47456 | 145.16193 | 37063 ft | 471 kts | 185° |
| 2026-05-05 15:30 | 20.40905 | 145.15763 | 37064 ft | 471 kts | 185° |
| 2026-05-05 15:30 | 20.34353 | 145.15332 | 37077 ft | 469 kts | 186° |
| 2026-05-05 15:31 | 20.27887 | 145.14911 | 37038 ft | 470 kts | 185° |
| 2026-05-05 15:31 | 20.21375 | 145.14474 | 37034 ft | 464 kts | 185° |
| 2026-05-05 15:32 | 20.14908 | 145.14047 | 37079 ft | 466 kts | 186° |
| 2026-05-05 15:32 | 20.08448 | 145.13633 | 37045 ft | 469 kts | 185° |
| 2026-05-05 15:33 | 20.01932 | 145.13203 | 37066 ft | 468 kts | 185° |
| 2026-05-05 15:33 | 19.95414 | 145.12779 | 37078 ft | 468 kts | 185° |
| 2026-05-05 15:34 | 19.88986 | 145.12356 | 37057 ft | 465 kts | 185° |
| 2026-05-05 15:34 | 19.82502 | 145.11933 | 37046 ft | 466 kts | 185° |
| 2026-05-05 15:35 | 19.76028 | 145.11509 | 37055 ft | 465 kts | 185° |
| 2026-05-05 15:35 | 19.69596 | 145.11087 | 37037 ft | 465 kts | 185° |
| 2026-05-05 15:36 | 19.63124 | 145.10669 | 37050 ft | 467 kts | 185° |
| 2026-05-05 15:36 | 19.56659 | 145.10248 | 37051 ft | 466 kts | 185° |
| 2026-05-05 15:37 | 19.50190 | 145.09826 | 37042 ft | 464 kts | 184° |
| 2026-05-05 15:37 | 19.43727 | 145.09405 | 37041 ft | 465 kts | 185° |
| 2026-05-05 15:38 | 19.37343 | 145.08982 | 37074 ft | 464 kts | 185° |
| 2026-05-05 15:38 | 19.30870 | 145.08576 | 37010 ft | 466 kts | 185° |
| 2026-05-05 15:39 | 19.24400 | 145.08149 | 37021 ft | 463 kts | 185° |
| 2026-05-05 15:39 | 19.18018 | 145.07736 | 37036 ft | 464 kts | 185° |
| 2026-05-05 15:40 | 19.11577 | 145.07377 | 37046 ft | 464 kts | 185° |
| 2026-05-05 15:40 | 19.05134 | 145.06908 | 37035 ft | 463 kts | 185° |
| 2026-05-05 15:41 | 18.98728 | 145.06488 | 37023 ft | 463 kts | 185° |
| 2026-05-05 15:41 | 18.92403 | 145.05404 | 37004 ft | 461 kts | 187° |
| 2026-05-05 15:41 | 18.89198 | 145.05435 | 37042 ft | 462 kts | 176° |
| 2026-05-05 15:42 | 18.85983 | 145.05541 | 37003 ft | 461 kts | 183° |
| 2026-05-05 15:42 | 18.82793 | 145.05404 | 38571 ft | 462 kts | 182° |
| 2026-05-05 15:42 | 18.79556 | 145.05228 | 38319 ft | 471 kts | 180° |
| 2026-05-05 15:42 | 18.76283 | 145.05031 | 37918 ft | 483 kts | 172° |
| 2026-05-05 15:43 | 18.72879 | 145.04822 | 37466 ft | 496 kts | 178° |
| 2026-05-05 15:43 | 18.69380 | 145.04610 | 37002 ft | 509 kts | 179° |
| 2026-05-05 15:43 | 18.65817 | 145.04360 | 36719 ft | 519 kts | 173° |
| 2026-05-05 15:44 | 18.59789 | 145.03976 | 36746 ft | 522 kts | 174° |
| 2026-05-05 15:44 | 18.52479 | 145.03506 | 36748 ft | 528 kts | 174° |
| 2026-05-05 15:45 | 18.45091 | 145.03031 | 36745 ft | 535 kts | 174° |
| 2026-05-05 15:45 | 18.37666 | 145.02554 | 36750 ft | 541 kts | 174° |
| 2026-05-05 15:46 | 18.30088 | 145.02068 | 36746 ft | 548 kts | 174° |
| 2026-05-05 15:46 | 18.22411 | 145.01576 | 36747 ft | 555 kts | 174° |
| 2026-05-05 15:47 | 18.14697 | 145.01082 | 36748 ft | 562 kts | 174° |
| 2026-05-05 15:47 | 18.06824 | 145.00578 | 36748 ft | 569 kts | 174° |
| 2026-05-05 15:48 | 17.98857 | 145.00068 | 36750 ft | 576 kts | 175° |
| 2026-05-05 15:48 | 17.90806 | 144.99554 | 36749 ft | 583 kts | 175° |
| 2026-05-05 15:49 | 17.82728 | 144.99038 | 36747 ft | 586 kts | 175° |
| 2026-05-05 15:49 | 17.74575 | 144.98518 | 36746 ft | 586 kts | 175° |
| 2026-05-05 15:50 | 17.66442 | 144.98028 | 36747 ft | 586 kts | 175° |
| 2026-05-05 15:50 | 17.58293 | 144.97539 | 36747 ft | 586 kts | 175° |
| 2026-05-05 15:51 | 17.50189 | 144.97053 | 36746 ft | 586 kts | 175° |
| 2026-05-05 15:51 | 17.42061 | 144.96565 | 36746 ft | 586 kts | 175° |
| 2026-05-05 15:52 | 17.33913 | 144.96077 | 36746 ft | 586 kts | 175° |
| 2026-05-05 15:52 | 17.25818 | 144.95593 | 36746 ft | 586 kts | 175° |
| 2026-05-05 15:53 | 17.17691 | 144.95107 | 36747 ft | 586 kts | 175° |
| 2026-05-05 15:53 | 17.09525 | 144.94619 | 36747 ft | 586 kts | 175° |
| 2026-05-05 15:54 | 17.01420 | 144.94135 | 36747 ft | 586 kts | 175° |
| 2026-05-05 15:54 | 16.93279 | 144.93650 | 36747 ft | 586 kts | 175° |
| 2026-05-05 15:55 | 16.85137 | 144.93164 | 36747 ft | 586 kts | 175° |
| 2026-05-05 15:55 | 16.77042 | 144.92682 | 36747 ft | 586 kts | 175° |
| 2026-05-05 15:56 | 16.68883 | 144.92197 | 36747 ft | 586 kts | 175° |
| 2026-05-05 15:56 | 16.60750 | 144.91713 | 36747 ft | 586 kts | 175° |
| 2026-05-05 15:57 | 16.52657 | 144.91233 | 36746 ft | 586 kts | 175° |
| 2026-05-05 15:57 | 16.44503 | 144.90749 | 36746 ft | 586 kts | 175° |
| 2026-05-05 15:58 | 16.36369 | 144.90267 | 36746 ft | 586 kts | 175° |
| 2026-05-05 15:58 | 16.28272 | 144.89787 | 36746 ft | 586 kts | 175° |
| 2026-05-05 15:59 | 16.20118 | 144.89304 | 36746 ft | 586 kts | 175° |
| 2026-05-05 15:59 | 16.11975 | 144.88823 | 36746 ft | 586 kts | 175° |
| 2026-05-05 16:00 | 16.03885 | 144.88345 | 36746 ft | 586 kts | 175° |
| 2026-05-05 16:00 | 15.95729 | 144.87863 | 36747 ft | 586 kts | 175° |
| 2026-05-05 16:01 | 15.87592 | 144.87383 | 36747 ft | 586 kts | 175° |
| 2026-05-05 16:01 | 15.79491 | 144.86905 | 36746 ft | 586 kts | 175° |
| 2026-05-05 16:02 | 15.71343 | 144.86426 | 36747 ft | 586 kts | 175° |
| 2026-05-05 16:02 | 15.63203 | 144.85946 | 36747 ft | 586 kts | 175° |
| 2026-05-05 16:03 | 15.55103 | 144.85470 | 36747 ft | 586 kts | 174° |
| 2026-05-05 16:03 | 15.46958 | 144.84991 | 36202 ft | 585 kts | 174° |
| 2026-05-05 16:03 | 15.42883 | 144.84753 | 35140 ft | 593 kts | 175° |
| 2026-05-05 16:04 | 15.38727 | 144.84508 | 34261 ft | 597 kts | 175° |
| 2026-05-05 16:04 | 15.34593 | 144.84265 | 33796 ft | 590 kts | 175° |
| 2026-05-05 16:04 | 15.30568 | 144.84029 | 33352 ft | 583 kts | 174° |
| 2026-05-05 16:04 | 15.26530 | 144.83792 | 32879 ft | 578 kts | 174° |
| 2026-05-05 16:05 | 15.22531 | 144.83558 | 32367 ft | 574 kts | 174° |
| 2026-05-05 16:05 | 15.18557 | 144.83325 | 31868 ft | 570 kts | 174° |
| 2026-05-05 16:05 | 15.14610 | 144.83090 | 31383 ft | 566 kts | 175° |
| 2026-05-05 16:05 | 15.10735 | 144.82658 | 30947 ft | 566 kts | 179° |
| 2026-05-05 16:06 | 15.06830 | 144.82147 | 30418 ft | 564 kts | 180° |
| 2026-05-05 16:06 | 15.02947 | 144.81620 | 29945 ft | 560 kts | 180° |
| 2026-05-05 16:06 | 14.99089 | 144.81093 | 29456 ft | 557 kts | 180° |
| 2026-05-05 16:06 | 14.95254 | 144.80568 | 28986 ft | 554 kts | 180° |
| 2026-05-05 16:07 | 14.91450 | 144.80047 | 28505 ft | 550 kts | 179° |
| 2026-05-05 16:07 | 14.87660 | 144.79527 | 28052 ft | 547 kts | 178° |
| 2026-05-05 16:07 | 14.83937 | 144.79016 | 27498 ft | 544 kts | 176° |
| 2026-05-05 16:07 | 14.80198 | 144.78504 | 26712 ft | 540 kts | 174° |
| 2026-05-05 16:08 | 14.76510 | 144.77997 | 26090 ft | 525 kts | 173° |
| 2026-05-05 16:08 | 14.72938 | 144.77506 | 25524 ft | 508 kts | 173° |
| 2026-05-05 16:08 | 14.69504 | 144.77037 | 24985 ft | 489 kts | 172° |
| 2026-05-05 16:08 | 14.66211 | 144.76587 | 24479 ft | 469 kts | 172° |
| 2026-05-05 16:09 | 14.63042 | 144.76155 | 23979 ft | 448 kts | 172° |
| 2026-05-05 16:09 | 14.60008 | 144.75742 | 23483 ft | 429 kts | 173° |
| 2026-05-05 16:09 | 14.57152 | 144.75354 | 23008 ft | 409 kts | 179° |
| 2026-05-05 16:09 | 14.54363 | 144.74992 | 21488 ft | 400 kts | 186° |
| 2026-05-05 16:10 | 14.51617 | 144.74609 | 20998 ft | 396 kts | 185° |
| 2026-05-05 16:10 | 14.48887 | 144.74234 | 20508 ft | 396 kts | 185° |
| 2026-05-05 16:10 | 14.46152 | 144.73861 | 20014 ft | 395 kts | 185° |
| 2026-05-05 16:10 | 14.43442 | 144.73491 | 19538 ft | 394 kts | 185° |
| 2026-05-05 16:11 | 14.40722 | 144.73118 | 19069 ft | 393 kts | 185° |
| 2026-05-05 16:11 | 14.32627 | 144.72017 | 17594 ft | 391 kts | 184° |
| 2026-05-05 16:12 | 14.29927 | 144.71650 | 17081 ft | 390 kts | 184° |
| 2026-05-05 16:12 | 14.24562 | 144.70919 | 16052 ft | 387 kts | 184° |
| 2026-05-05 16:13 | 14.16632 | 144.69841 | 14594 ft | 382 kts | 186° |
| 2026-05-05 16:13 | 14.14002 | 144.69482 | 14129 ft | 380 kts | 184° |
| 2026-05-05 16:13 | 14.11385 | 144.69126 | 13661 ft | 378 kts | 183° |
| 2026-05-05 16:14 | 14.06194 | 144.68419 | 12635 ft | 374 kts | 185° |
| 2026-05-05 16:14 | 14.01050 | 144.67724 | 11634 ft | 371 kts | 181° |
| 2026-05-05 16:15 | 13.96022 | 144.67042 | 10908 ft | 361 kts | 183° |
| 2026-05-05 16:15 | 13.91136 | 144.66378 | 10211 ft | 346 kts | 183° |
| 2026-05-05 16:16 | 13.86466 | 144.65745 | 9521 ft | 328 kts | 184° |
| 2026-05-05 16:16 | 13.82022 | 144.65141 | 8880 ft | 320 kts | 184° |
| 2026-05-05 16:17 | 13.77649 | 144.64548 | 8244 ft | 313 kts | 183° |
| 2026-05-05 16:17 | 13.75498 | 144.64258 | 7946 ft | 310 kts | 182° |
| 2026-05-05 16:18 | 13.71257 | 144.63684 | 7330 ft | 305 kts | 183° |
| 2026-05-05 16:18 | 13.69165 | 144.63401 | 7019 ft | 303 kts | 183° |
| 2026-05-05 16:18 | 13.65086 | 144.62353 | 6409 ft | 305 kts | 199° |
| 2026-05-05 16:19 | 13.63123 | 144.61559 | 6087 ft | 302 kts | 195° |
| 2026-05-05 16:19 | 13.61151 | 144.60815 | 5766 ft | 301 kts | 195° |
| 2026-05-05 16:19 | 13.57282 | 144.59412 | 5254 ft | 291 kts | 191° |
| 2026-05-05 16:20 | 13.53431 | 144.58302 | 4760 ft | 283 kts | 190° |
| 2026-05-05 16:20 | 13.49633 | 144.57889 | 4231 ft | 270 kts | 165° |
| 2026-05-05 16:21 | 13.45980 | 144.58516 | 3744 ft | 263 kts | 163° |
| 2026-05-05 16:22 | 13.41896 | 144.61180 | 3062 ft | 227 kts | 104° |
| 2026-05-05 16:22 | 13.41426 | 144.64154 | 2999 ft | 199 kts | 78° |
| 2026-05-05 16:23 | 13.42521 | 144.66616 | 2692 ft | 185 kts | 67° |
| 2026-05-05 16:23 | 13.43045 | 144.67757 | 2495 ft | 166 kts | 67° |
| 2026-05-05 16:23 | 13.43940 | 144.69720 | 2118 ft | 139 kts | 70° |
| 2026-05-05 16:24 | 13.44277 | 144.70624 | 1942 ft | 131 kts | 79° |
| 2026-05-05 16:24 | 13.44561 | 144.71432 | 1821 ft | 120 kts | 56° |
| 2026-05-05 16:24 | 13.45368 | 144.72993 | 1562 ft | 130 kts | 69° |
| 2026-05-05 16:25 | 13.45774 | 144.73829 | 1293 ft | 133 kts | 63° |
| 2026-05-05 16:25 | 13.46590 | 144.75518 | 885 ft | 146 kts | 67° |
| 2026-05-05 16:25 | 13.47006 | 144.76456 | 701 ft | 141 kts | 66° |
| 2026-05-05 16:26 | 13.47849 | 144.78298 | 319 ft | 140 kts | 66° |
| 2026-05-05 16:26 | 13.48485 | 144.79693 | 283 ft | 55 kts | 64° |
| 2026-05-05 16:27 | 13.48638 | 144.80019 | 294 ft | 50 kts | 64° |
| 2026-05-05 16:27 | 13.48796 | 144.80271 | 298 ft | 36 kts | 40° |
| 2026-05-05 16:27 | 13.48954 | 144.80389 | 299 ft | 25 kts | 35° |
| 2026-05-05 16:27 | 13.49062 | 144.80528 | 299 ft | 24 kts | 60° |
| 2026-05-05 16:28 | 13.49126 | 144.80549 | 300 ft | 8 kts | 317° |
| 2026-05-05 16:28 | 13.49161 | 144.80526 | 300 ft | 0 kts | 331° |